aviador You're here:

LEBB Decoded Metar

BILBAO in SPAIN
Report Time2017-08-22 10:30:00
UTC Time2017-08-22 11:05:17
Flight Rules vfr VFR
Wind320° at 12 kt
W.Decomp.*RWY 30: 11.1 kt HW 4.5 kt RCW
RWY 28: 8.9 kt HW 8.0 kt RCW
W.Rank320° ranks 1
Current wind is above 320° avg. (9.2)
Visibility9999 m
Phenomena:N/A
Clouds:N/A
Expected CloudBase > 3,600 ft AGL from Temp-Dew spread
CeilingNone
Temp27°C (ISA +12)
Dew Point18°C (58% RH)
Heat Index27.9°C
AAT25.5°C
QNH1017 hPa
Density Alt1,660 ft
Elevation112 ft
Report Wrong Elevation
Raw Report
LEBB 221030Z 32012KT CAVOK 27/18 Q1017 NOSIG=

Extra information for LEBB:More info

Metar Taf Metar & Taf Last 4 Metars F.Rules Stats Wind Profile Meteogram Temp Stats Airport Information Weather charts Add Link Nearby VenuesMetar ALERT Operation Metar Decoded Social comments